Portada
METAR-TAF:

METAR-TAF

Aeropuertos :

Beirut, Líbano

latitud: 33-49N, longitud: 035-29E, altitud: 29 m

METAR: falta

Hora: 02:54 (23:54 UTC)

Pronóstico

El informe se hizo hace 1 hora y 54 minutos, a las 22:00 UTC
Pronóstico válido del 25 a las 00 UTC al 26 a las 06 UTC
Viento 4 kt del este-sureste
Visibilidad: 8000 m
Evolucionando progresivamente
del 25 a las 06 UTC al 25 a las 08 UTC
Viento 10 kt del oeste
Nubes dispersas a una altura de 2600 ft
Temporalmente
del 25 a las 06 UTC al 25 a las 14 UTC
Visibilidad: 5000 m
neblina
Evolucionando progresivamente
del 25 a las 18 UTC al 25 a las 20 UTC
Viento 4 kt del sureste
Cielo nuboso a una altura de 2600 ft

TAF: OLBA 242200Z 2500/2606 12004KT 8000 NSC BECMG 2506/2508 26010KT SCT026 TEMPO 2506/2514 5000 BR BECMG 2518/2520 14004KT BKN026

Observaciones y pronósticos meteorológicos de más de 4000 aeropuertos (mensajes METAR y TAF).

Los puntos amarillos y rojos representan las estaciones disponibles.

Ponga el ratón en el punto deseado para ver el nombre de la estación.

Haga clic para ver las observaciones y los pronósticos meteorológicos.

Para cambiar el mapa : haga clic en los botones verdes con una cruz de color negro para hacer un zoom, en el botón verde con un guión para alejar o en las flechas verdes para mapas adyacentes.


METAR-TAF: